Crescent City, CA

6:58 PM PDT on August 31, 2016 (GMT -0700)
Tanbark lane | | Change Station

Elev 98 ft 41.79 °N, 124.17 °W | Updated 16 seconds ago

Mist
Mist
61.5 °F
Feels Like 61.5 °F
N
0.0
Wind Variable Wind from SW
Gusts 0.0 mph

Today
High -- | Low -- °F
--% Chance of Precip.
Yesterday
High -- | Low -- °F
Precip. -- in
Pressure 30.06 in
Visibility 0.8 miles
Clouds
Dew Point 61 °F
Humidity 98%
Rainfall 0.00 in
Snow Depth Not available.
6:42 AM 7:50 PM
Waning Crescent, 0% visible
METAR KCEC 010156Z AUTO 35005KT 3/4SM BR VV002 15/14 A3006 RMK AO2 SLP180 T01500144
Pressure 30.06 in
Visibility 0.8 miles
Clouds
Dew Point 61 °F
Humidity 98%
Rainfall 0.00 in
Snow Depth Not available.
6:42 AM 7:50 PM
Waning Crescent, 0% visible
METAR KCEC 010156Z AUTO 35005KT 3/4SM BR VV002 15/14 A3006 RMK AO2 SLP180 T01500144

10-Day Weather Forecast

Almanac

Astronomy

Aug. 31, 2016 Rise Set
Actual Time
Civil Twilight
Nautical Twilight
Astronomical Twilight
Moon
Length of Visible Light
Length of Day
Tomorrow will be .
, % of the Moon is Illuminated

Today's Extremes

State Highs State Lows

Community

WunderPhotos

Upload Photos

1,936,266 photos uploaded!

WunderBlog® & News

Nearby

Air Quality

  Air Quality AQ Index Pollutant
Not available.

Snow Depth

Station Depth Elevation

Earthquake Activity

City Distance Mag. Time & Date
Minimum magnitude displayed is 2.5.

Coastal Water Temperatures

Place Temperature

Stations

Nearby Weather Stations

Station Location Temp. Windchill Dew Point Humidity Wind Precip. Elev Updated Type
                   

Watches & Warnings

There are currently no watches in effect.